Powells Point, North Carolina
Current Conditions -  °F | °C
As of 11:15 PM on Tuesday 21 Oct 2014 (Local Time) from KFFA Reporting Station
Clear Clear  
Wind Chill: 64°   Ceiling: Unl
Heat Index: 64°   Visibility: 10mi
Dew Point: 62°   Wind: 0mph
Humidity: 92%   Direction: NA
Pressure: 29.81"   Gusts: NA
Location:  36.16°N, 75.86°W
Report Text: KFFA 220315Z AUTO 00000KT 10SM CLR 18/16 A2981 RMK AO2 T01770164
Loading
Personal Weather Stations






























Interactive Weather Map
Tropical Storm Tracking
New forecast layout! Learn more

10-Day Weather Forecast

Advertisements
Track Severe Weather on mobile